Time,TemperatureF,DewpointF,PressureIn,WindDirection,WindDirectionDegrees,WindSpeedMPH,WindSpeedGustMPH,Humidity,HourlyPrecipIn,Conditions,Clouds,dailyrainin,SoftwareType,DateUTC
2013-08-04 00:00:00,56.8,56.8,29.21,NNE,30,0.0,0.0,100,0.00,,---,0.00,VWS V14.01,2013-08-04 05:00:00,
2013-08-04 00:06:00,56.7,56.7,29.21,NNE,30,0.0,0.0,100,0.00,,---,0.00,VWS V14.01,2013-08-04 05:06:00,
2013-08-04 00:11:00,56.3,56.3,29.21,NNE,30,0.0,0.0,100,0.00,,---,0.00,VWS V14.01,2013-08-04 05:11:00,
2013-08-04 00:16:00,56.1,56.1,29.21,NNE,30,0.0,0.0,100,0.00,,---,0.00,VWS V14.01,2013-08-04 05:16:00,
2013-08-04 00:21:00,55.9,55.9,29.21,NNE,30,0.0,0.0,100,0.00,,---,0.00,VWS V14.01,2013-08-04 05:21:00,
2013-08-04 00:26:00,56.1,56.1,29.21,NW,324,0.0,0.0,100,0.00,,---,0.00,VWS V14.01,2013-08-04 05:26:00,
2013-08-04 00:31:00,55.9,55.9,29.21,NW,324,0.0,0.0,100,0.00,,---,0.00,VWS V14.01,2013-08-04 05:31:00,
2013-08-04 00:36:00,55.8,55.8,29.21,NW,324,0.0,0.0,100,0.00,,---,0.00,VWS V14.01,2013-08-04 05:36:00,
2013-08-04 00:41:00,55.8,55.8,29.21,NW,324,0.0,0.0,100,0.00,,---,0.00,VWS V14.01,2013-08-04 05:41:00,
2013-08-04 00:46:00,55.6,55.6,29.21,NW,324,0.0,0.0,100,0.00,,---,0.00,VWS V14.01,2013-08-04 05:46:00,
2013-08-04 00:51:00,55.2,55.2,29.21,NW,324,0.0,0.0,100,0.00,,---,0.00,VWS V14.01,2013-08-04 05:51:00,
2013-08-04 00:56:00,54.9,54.9,29.21,NW,324,0.0,0.0,100,0.00,,---,0.00,VWS V14.01,2013-08-04 05:56:00,
2013-08-04 01:01:00,54.7,54.7,29.21,NW,324,0.0,0.0,100,0.00,,---,0.00,VWS V14.01,2013-08-04 06:01:00,
2013-08-04 01:06:00,54.5,54.5,29.21,NW,324,0.0,0.0,100,0.00,,---,0.00,VWS V14.01,2013-08-04 06:06:00,
2013-08-04 01:11:00,54.5,54.5,29.21,NW,324,0.0,0.0,100,0.00,,---,0.00,VWS V14.01,2013-08-04 06:11:00,
2013-08-04 01:16:00,54.5,54.5,29.21,NW,324,0.0,0.0,100,0.00,,---,0.00,VWS V14.01,2013-08-04 06:16:00,
2013-08-04 01:21:00,54.5,54.5,29.21,North,0,0.0,0.0,100,0.00,,---,0.00,VWS V14.01,2013-08-04 06:21:00,
2013-08-04 01:25:00,54.3,54.3,29.21,North,0,0.0,0.0,100,0.00,,---,0.00,VWS V14.01,2013-08-04 06:25:00,
2013-08-04 01:30:00,54.3,54.3,29.21,North,0,0.0,0.0,100,0.00,,---,0.00,VWS V14.01,2013-08-04 06:30:00,
2013-08-04 01:35:00,54.1,54.1,29.21,North,0,0.0,0.0,100,0.00,,---,0.00,VWS V14.01,2013-08-04 06:35:00,
2013-08-04 01:40:00,54.0,54.0,29.21,North,0,0.0,0.0,100,0.00,,---,0.00,VWS V14.01,2013-08-04 06:40:00,
2013-08-04 01:45:00,54.0,54.0,29.21,North,0,0.0,0.0,100,0.00,,---,0.00,VWS V14.01,2013-08-04 06:45:00,
2013-08-04 01:50:00,54.0,54.0,29.21,North,0,0.0,0.0,100,0.00,,---,0.00,VWS V14.01,2013-08-04 06:50:00,
2013-08-04 01:55:00,54.0,54.0,29.21,North,0,0.0,0.0,100,0.00,,---,0.00,VWS V14.01,2013-08-04 06:55:00,
2013-08-04 02:00:00,54.0,54.0,29.21,North,0,0.0,0.0,100,0.00,,---,0.00,VWS V14.01,2013-08-04 07:00:00,
2013-08-04 02:05:00,53.6,53.6,29.23,North,0,0.0,0.0,100,0.00,,---,0.00,VWS V14.01,2013-08-04 07:05:00,
2013-08-04 02:10:00,53.4,53.4,29.23,North,0,0.0,0.0,100,0.00,,---,0.00,VWS V14.01,2013-08-04 07:10:00,
2013-08-04 02:15:00,53.4,53.4,29.23,NNW,331,0.0,0.0,100,0.00,,---,0.00,VWS V14.01,2013-08-04 07:15:00,
2013-08-04 02:20:00,53.4,53.4,29.23,NNW,331,0.0,0.0,100,0.00,,---,0.00,VWS V14.01,2013-08-04 07:20:00,
2013-08-04 02:25:00,53.2,53.2,29.23,NNW,331,0.0,0.0,100,0.00,,---,0.00,VWS V14.01,2013-08-04 07:25:00,
2013-08-04 02:30:00,53.4,53.4,29.23,NNW,331,0.0,0.0,100,0.00,,---,0.00,VWS V14.01,2013-08-04 07:30:00,
2013-08-04 02:35:00,53.4,53.4,29.23,NNW,331,0.0,0.0,100,0.00,,---,0.00,VWS V14.01,2013-08-04 07:35:00,
2013-08-04 02:40:00,53.4,53.4,29.23,NNW,331,0.0,0.0,100,0.00,,---,0.00,VWS V14.01,2013-08-04 07:40:00,
2013-08-04 02:45:00,53.2,53.2,29.23,NNW,331,0.0,0.0,100,0.00,,---,0.00,VWS V14.01,2013-08-04 07:45:00,
2013-08-04 02:50:00,53.2,53.2,29.23,NNW,331,0.0,0.0,100,0.00,,---,0.00,VWS V14.01,2013-08-04 07:50:00,
2013-08-04 02:55:00,53.2,53.2,29.23,NNW,331,0.0,0.0,100,0.00,,---,0.00,VWS V14.01,2013-08-04 07:55:00,
2013-08-04 03:00:00,53.2,53.2,29.23,NNW,331,0.0,0.0,100,0.00,,---,0.00,VWS V14.01,2013-08-04 08:00:00,
2013-08-04 03:05:00,53.2,53.2,29.23,NNW,331,0.0,0.0,100,0.00,,---,0.00,VWS V14.01,2013-08-04 08:05:00,
2013-08-04 03:10:00,53.4,53.4,29.23,NNW,331,0.0,0.0,100,0.00,,---,0.00,VWS V14.01,2013-08-04 08:10:00,
2013-08-04 03:15:00,53.4,53.4,29.23,NNW,331,0.0,0.0,100,0.00,,---,0.00,VWS V14.01,2013-08-04 08:15:00,
2013-08-04 03:20:00,53.1,53.1,29.23,NNW,331,0.0,0.0,100,0.00,,---,0.00,VWS V14.01,2013-08-04 08:20:00,
2013-08-04 03:25:00,52.9,52.9,29.23,North,0,0.0,0.0,100,0.00,,---,0.00,VWS V14.01,2013-08-04 08:25:00,
2013-08-04 03:30:00,52.7,52.7,29.23,North,0,0.0,0.0,100,0.00,,---,0.00,VWS V14.01,2013-08-04 08:30:00,
2013-08-04 03:35:00,52.3,52.3,29.23,North,0,0.0,0.0,100,0.00,,---,0.00,VWS V14.01,2013-08-04 08:35:00,
2013-08-04 03:40:00,52.2,52.2,29.23,North,0,0.0,0.0,100,0.00,,---,0.00,VWS V14.01,2013-08-04 08:40:00,
2013-08-04 03:45:00,52.3,52.3,29.23,North,0,0.0,0.0,100,0.00,,---,0.00,VWS V14.01,2013-08-04 08:45:00,
2013-08-04 03:50:00,52.3,52.3,29.23,North,0,0.0,0.0,100,0.00,,---,0.00,VWS V14.01,2013-08-04 08:50:00,
2013-08-04 03:55:00,52.2,52.2,29.23,North,0,0.0,0.0,100,0.00,,---,0.00,VWS V14.01,2013-08-04 08:55:00,
2013-08-04 04:00:00,52.0,52.0,29.23,North,0,0.0,0.0,100,0.00,,---,0.00,VWS V14.01,2013-08-04 09:00:00,
2013-08-04 04:05:00,51.8,51.8,29.23,North,0,0.0,0.0,100,0.00,,---,0.00,VWS V14.01,2013-08-04 09:05:00,
2013-08-04 04:10:00,51.6,51.6,29.23,North,0,0.0,0.0,100,0.00,,---,0.00,VWS V14.01,2013-08-04 09:10:00,
2013-08-04 04:15:00,51.6,51.6,29.23,North,0,0.0,0.0,100,0.00,,---,0.00,VWS V14.01,2013-08-04 09:15:00,
2013-08-04 04:20:00,51.6,51.6,29.23,North,0,0.0,0.0,100,0.00,,---,0.00,VWS V14.01,2013-08-04 09:20:00,
2013-08-04 04:25:00,51.6,51.6,29.23,WNW,298,0.0,0.0,100,0.00,,---,0.00,VWS V14.01,2013-08-04 09:25:00,
2013-08-04 04:30:00,51.6,51.6,29.23,WNW,298,0.0,0.0,100,0.00,,---,0.00,VWS V14.01,2013-08-04 09:30:00,
2013-08-04 04:35:00,51.4,51.4,29.23,WNW,298,0.0,0.0,100,0.00,,---,0.00,VWS V14.01,2013-08-04 09:35:00,
2013-08-04 04:40:00,51.4,51.4,29.23,WNW,298,0.0,0.0,100,0.00,,---,0.00,VWS V14.01,2013-08-04 09:40:00,
2013-08-04 04:45:00,51.3,51.3,29.23,WNW,298,0.0,0.0,100,0.00,,---,0.00,VWS V14.01,2013-08-04 09:45:00,
2013-08-04 04:50:00,51.1,51.1,29.23,WNW,298,0.0,0.0,100,0.00,,---,0.00,VWS V14.01,2013-08-04 09:50:00,
2013-08-04 04:55:00,50.7,50.7,29.23,WNW,298,0.0,0.0,100,0.00,,---,0.00,VWS V14.01,2013-08-04 09:55:00,
2013-08-04 05:00:00,50.4,50.4,29.23,WNW,298,0.0,0.0,100,0.00,,---,0.00,VWS V14.01,2013-08-04 10:00:00,
2013-08-04 05:05:00,50.4,50.4,29.23,WNW,298,0.0,0.0,100,0.00,,---,0.00,VWS V14.01,2013-08-04 10:05:00,
2013-08-04 05:10:00,50.4,50.4,29.23,WNW,298,0.0,0.0,100,0.00,,---,0.00,VWS V14.01,2013-08-04 10:10:00,
2013-08-04 05:15:00,50.4,50.4,29.23,WNW,298,0.0,0.0,100,0.00,,---,0.00,VWS V14.01,2013-08-04 10:15:00,
2013-08-04 05:20:00,50.5,50.5,29.21,WNW,298,0.0,0.0,100,0.00,,---,0.00,VWS V14.01,2013-08-04 10:20:00,
2013-08-04 05:25:00,50.5,50.5,29.21,WNW,298,0.0,0.0,100,0.00,,---,0.00,VWS V14.01,2013-08-04 10:25:00,
2013-08-04 05:30:00,50.7,50.7,29.21,WNW,298,0.0,0.0,100,0.00,,---,0.00,VWS V14.01,2013-08-04 10:30:00,
2013-08-04 05:35:00,50.5,50.5,29.23,WNW,298,0.0,0.0,100,0.00,,---,0.00,VWS V14.01,2013-08-04 10:35:00,
2013-08-04 05:40:00,50.4,50.4,29.23,WNW,298,0.0,0.0,100,0.00,,---,0.00,VWS V14.01,2013-08-04 10:40:00,
2013-08-04 05:45:00,50.4,50.4,29.23,WNW,298,0.0,0.0,100,0.00,,---,0.00,VWS V14.01,2013-08-04 10:45:00,
2013-08-04 05:50:00,50.2,50.2,29.23,WNW,298,0.0,0.0,100,0.00,,---,0.00,VWS V14.01,2013-08-04 10:50:00,
2013-08-04 05:55:00,49.8,49.8,29.23,WNW,298,0.0,0.0,100,0.00,,---,0.00,VWS V14.01,2013-08-04 10:55:00,
2013-08-04 06:00:00,49.6,49.6,29.23,WNW,298,0.0,0.0,100,0.00,,---,0.00,VWS V14.01,2013-08-04 11:00:00,
2013-08-04 06:05:00,49.6,49.6,29.23,WNW,298,0.0,0.0,100,0.00,,---,0.00,VWS V14.01,2013-08-04 11:05:00,
2013-08-04 06:10:00,49.8,49.8,29.23,WNW,298,0.0,0.0,100,0.00,,---,0.00,VWS V14.01,2013-08-04 11:10:00,
2013-08-04 06:15:00,50.0,50.0,29.23,WNW,298,0.0,0.0,100,0.00,,---,0.00,VWS V14.01,2013-08-04 11:15:00,
2013-08-04 06:20:00,50.2,50.2,29.23,WNW,298,0.0,0.0,100,0.00,,---,0.00,VWS V14.01,2013-08-04 11:20:00,
2013-08-04 06:25:00,50.2,50.2,29.23,WNW,298,0.0,0.0,100,0.00,,---,0.00,VWS V14.01,2013-08-04 11:25:00,
2013-08-04 06:30:00,50.2,50.2,29.23,WNW,298,0.0,0.0,100,0.00,,---,0.00,VWS V14.01,2013-08-04 11:30:00,
2013-08-04 06:35:00,50.2,50.2,29.23,WNW,298,0.0,0.0,100,0.00,,---,0.00,VWS V14.01,2013-08-04 11:35:00,
2013-08-04 06:40:00,50.4,50.4,29.23,WNW,298,0.0,0.0,100,0.00,,---,0.00,VWS V14.01,2013-08-04 11:40:00,
2013-08-04 06:45:00,50.5,50.5,29.23,WNW,298,0.0,0.0,100,0.00,,---,0.00,VWS V14.01,2013-08-04 11:45:00,
2013-08-04 06:49:00,50.7,50.7,29.23,WNW,298,0.0,0.0,100,0.00,,---,0.00,VWS V14.01,2013-08-04 11:49:00,
2013-08-04 06:54:00,51.1,51.1,29.23,WNW,298,0.0,0.0,100,0.00,,---,0.00,VWS V14.01,2013-08-04 11:54:00,
2013-08-04 06:59:00,51.3,51.3,29.23,WNW,298,0.0,0.0,100,0.00,,---,0.00,VWS V14.01,2013-08-04 11:59:00,
2013-08-04 07:05:00,51.6,51.6,29.23,WNW,298,0.0,0.0,100,0.00,,---,0.00,VWS V14.01,2013-08-04 12:05:00,
2013-08-04 07:10:00,52.0,52.0,29.23,WNW,298,0.0,0.0,100,0.00,,---,0.00,VWS V14.01,2013-08-04 12:10:00,
2013-08-04 07:15:00,52.0,52.0,29.23,WNW,298,0.0,0.0,100,0.00,,---,0.00,VWS V14.01,2013-08-04 12:15:00,
2013-08-04 07:20:00,52.3,52.3,29.23,WNW,298,0.0,0.0,100,0.00,,---,0.00,VWS V14.01,2013-08-04 12:20:00,
2013-08-04 07:25:00,52.7,52.7,29.23,WNW,298,0.0,0.0,100,0.00,,---,0.00,VWS V14.01,2013-08-04 12:25:00,
2013-08-04 07:29:00,53.1,53.1,29.23,WNW,298,0.0,0.0,100,0.00,,---,0.00,VWS V14.01,2013-08-04 12:29:00,
2013-08-04 07:35:00,53.6,53.6,29.23,WNW,298,0.0,0.0,100,0.00,,---,0.00,VWS V14.01,2013-08-04 12:35:00,
2013-08-04 07:40:00,54.0,54.0,29.23,WNW,298,0.0,0.0,100,0.00,,---,0.00,VWS V14.01,2013-08-04 12:40:00,
2013-08-04 07:45:00,54.3,54.3,29.23,WNW,298,0.0,0.0,100,0.00,,---,0.00,VWS V14.01,2013-08-04 12:45:00,
2013-08-04 07:50:00,54.7,54.7,29.26,WNW,298,0.0,0.0,100,0.00,,---,0.00,VWS V14.01,2013-08-04 12:50:00,
2013-08-04 07:54:00,55.0,55.0,29.26,WNW,302,0.0,0.0,100,0.00,,---,0.00,VWS V14.01,2013-08-04 12:54:00,
2013-08-04 07:59:00,55.4,55.4,29.26,ENE,57,3.1,3.1,100,0.00,,---,0.00,VWS V14.01,2013-08-04 12:59:00,
2013-08-04 08:05:00,55.9,55.9,29.26,NE,49,3.1,3.1,100,0.00,,---,0.00,VWS V14.01,2013-08-04 13:05:00,
2013-08-04 08:10:00,56.3,56.3,29.26,ENE,62,2.7,2.7,100,0.00,,---,0.00,VWS V14.01,2013-08-04 13:10:00,
2013-08-04 08:15:00,56.7,56.7,29.26,ENE,76,2.7,2.7,100,0.00,,---,0.00,VWS V14.01,2013-08-04 13:15:00,
2013-08-04 08:20:00,56.7,56.7,29.26,ENE,67,0.0,0.0,100,0.00,,---,0.00,VWS V14.01,2013-08-04 13:20:00,
2013-08-04 08:24:00,57.0,57.0,29.26,ENE,71,2.7,2.7,100,0.00,,---,0.00,VWS V14.01,2013-08-04 13:24:00,
2013-08-04 08:30:00,57.2,57.2,29.26,ENE,65,3.1,3.1,100,0.00,,---,0.00,VWS V14.01,2013-08-04 13:30:00,
2013-08-04 08:35:00,57.6,57.6,29.26,ENE,65,0.0,0.0,100,0.00,,---,0.00,VWS V14.01,2013-08-04 13:35:00,
2013-08-04 08:40:00,57.7,57.7,29.26,ENE,74,0.0,0.0,100,0.00,,---,0.00,VWS V14.01,2013-08-04 13:40:00,
2013-08-04 08:45:00,58.1,58.1,29.26,NNE,28,0.0,0.0,100,0.00,,---,0.00,VWS V14.01,2013-08-04 13:45:00,
2013-08-04 08:49:00,58.5,58.5,29.26,ENE,68,4.0,4.9,100,0.00,,---,0.00,VWS V14.01,2013-08-04 13:49:00,
2013-08-04 08:54:00,58.6,58.6,29.26,NE,56,2.7,4.0,100,0.00,,---,0.00,VWS V14.01,2013-08-04 13:54:00,
2013-08-04 08:59:00,59.0,59.0,29.26,ENE,73,4.9,4.9,100,0.00,,---,0.00,VWS V14.01,2013-08-04 13:59:00,
2013-08-04 09:04:00,59.4,59.4,29.26,ENE,72,3.6,4.0,100,0.00,,---,0.00,VWS V14.01,2013-08-04 14:04:00,
2013-08-04 09:09:00,59.5,59.5,29.26,ESE,103,2.2,4.0,100,0.00,,---,0.00,VWS V14.01,2013-08-04 14:09:00,
2013-08-04 09:14:00,59.7,59.7,29.26,East,82,2.2,4.9,100,0.00,,---,0.00,VWS V14.01,2013-08-04 14:14:00,
2013-08-04 09:19:00,60.1,60.1,29.26,East,85,2.7,3.6,100,0.00,,---,0.00,VWS V14.01,2013-08-04 14:19:00,
2013-08-04 09:24:00,60.4,60.4,29.26,ENE,58,3.1,3.6,100,0.00,,---,0.00,VWS V14.01,2013-08-04 14:24:00,
2013-08-04 09:29:00,60.8,60.8,29.26,ENE,62,3.6,4.9,100,0.00,,---,0.00,VWS V14.01,2013-08-04 14:29:00,
2013-08-04 09:34:00,61.2,61.2,29.26,ESE,114,0.0,3.1,100,0.00,,---,0.00,VWS V14.01,2013-08-04 14:34:00,
2013-08-04 09:39:00,61.3,61.3,29.26,ENE,63,2.7,4.0,100,0.00,,---,0.00,VWS V14.01,2013-08-04 14:39:00,
2013-08-04 09:44:00,61.7,61.7,29.26,NNE,26,0.0,2.7,100,0.00,,---,0.00,VWS V14.01,2013-08-04 14:44:00,
2013-08-04 09:49:00,62.1,62.1,29.26,ENE,72,5.4,5.8,100,0.00,,---,0.00,VWS V14.01,2013-08-04 14:49:00,
2013-08-04 09:54:00,62.2,62.2,29.26,ENE,69,2.7,4.0,100,0.00,,---,0.00,VWS V14.01,2013-08-04 14:54:00,
2013-08-04 09:59:00,62.6,62.6,29.26,SSW,213,2.7,2.7,100,0.00,,---,0.00,VWS V14.01,2013-08-04 14:59:00,
2013-08-04 10:04:00,63.0,61.8,29.26,NW,307,0.0,0.0,96,0.00,,---,0.00,VWS V14.01,2013-08-04 15:04:00,
2013-08-04 10:09:00,63.1,63.1,29.26,SSE,151,3.1,3.1,100,0.00,,---,0.00,VWS V14.01,2013-08-04 15:09:00,
2013-08-04 10:14:00,63.7,63.4,29.26,ENE,73,4.5,4.5,99,0.00,,---,0.00,VWS V14.01,2013-08-04 15:14:00,
2013-08-04 10:19:00,64.0,59.1,29.26,South,182,0.0,0.0,84,0.00,,---,0.00,VWS V14.01,2013-08-04 15:19:00,
2013-08-04 10:24:00,64.4,56.3,29.26,NE,53,0.0,3.1,75,0.00,,---,0.00,VWS V14.01,2013-08-04 15:24:00,
2013-08-04 10:29:00,64.8,58.8,29.26,SW,229,0.0,0.0,81,0.00,,---,0.00,VWS V14.01,2013-08-04 15:29:00,
2013-08-04 10:34:00,65.3,59.3,29.26,SW,230,0.0,0.0,81,0.00,,---,0.00,VWS V14.01,2013-08-04 15:34:00,
2013-08-04 10:39:00,65.7,57.5,29.26,East,83,5.8,6.3,75,0.00,,---,0.00,VWS V14.01,2013-08-04 15:39:00,
2013-08-04 10:44:00,66.4,55.9,29.26,ENE,58,4.0,5.4,69,0.00,,---,0.00,VWS V14.01,2013-08-04 15:44:00,
2013-08-04 10:49:00,66.7,55.0,29.26,ENE,68,0.0,0.0,66,0.00,,---,0.00,VWS V14.01,2013-08-04 15:49:00,
2013-08-04 10:54:00,67.1,55.4,29.26,NW,310,0.0,2.2,66,0.00,,---,0.00,VWS V14.01,2013-08-04 15:54:00,
2013-08-04 10:59:00,67.5,53.1,29.26,North,353,0.0,0.0,60,0.00,,---,0.00,VWS V14.01,2013-08-04 15:59:00,
2013-08-04 11:04:00,68.7,58.2,29.26,NNE,24,3.6,4.0,69,0.00,,---,0.00,VWS V14.01,2013-08-04 16:04:00,
2013-08-04 11:09:00,70.0,51.0,29.26,WNW,303,2.2,2.7,51,0.00,,---,0.00,VWS V14.01,2013-08-04 16:09:00,
2013-08-04 11:14:00,69.6,47.4,29.26,SW,231,2.7,4.0,45,0.00,,---,0.00,VWS V14.01,2013-08-04 16:14:00,
2013-08-04 11:19:00,69.1,46.9,29.26,SSW,206,2.7,3.1,45,0.00,,---,0.00,VWS V14.01,2013-08-04 16:19:00,
2013-08-04 11:24:00,69.3,47.0,29.26,NE,42,3.1,3.1,45,0.00,,---,0.00,VWS V14.01,2013-08-04 16:24:00,
2013-08-04 11:29:00,70.0,45.9,29.26,North,350,4.0,4.9,42,0.00,,---,0.00,VWS V14.01,2013-08-04 16:29:00,
2013-08-04 11:34:00,70.3,46.2,29.26,North,0,3.1,6.3,42,0.00,,---,0.00,VWS V14.01,2013-08-04 16:34:00,
2013-08-04 11:39:00,71.4,47.2,29.26,ENE,74,4.0,5.4,42,0.00,,---,0.00,VWS V14.01,2013-08-04 16:39:00,
2013-08-04 11:44:00,71.8,47.5,29.26,West,263,3.1,3.1,42,0.00,,---,0.00,VWS V14.01,2013-08-04 16:44:00,
2013-08-04 11:49:00,72.3,48.0,29.23,NNW,334,4.0,4.0,42,0.00,,---,0.00,VWS V14.01,2013-08-04 16:49:00,
2013-08-04 11:54:00,73.0,48.6,29.23,ENE,77,3.1,3.6,42,0.00,,---,0.00,VWS V14.01,2013-08-04 16:54:00,
2013-08-04 11:59:00,73.4,47.0,29.23,WNW,302,4.0,4.0,39,0.00,,---,0.00,VWS V14.01,2013-08-04 16:59:00,
2013-08-04 12:04:00,73.6,47.1,29.23,West,271,3.6,3.6,39,0.00,,---,0.00,VWS V14.01,2013-08-04 17:04:00,
2013-08-04 12:09:00,74.1,47.6,29.23,NW,324,3.1,5.8,39,0.00,,---,0.00,VWS V14.01,2013-08-04 17:09:00,
2013-08-04 12:14:00,74.3,47.8,29.23,NNW,342,0.0,0.0,39,0.00,,---,0.00,VWS V14.01,2013-08-04 17:14:00,
2013-08-04 12:19:00,73.8,47.3,29.23,WNW,297,4.0,4.0,39,0.00,,---,0.00,VWS V14.01,2013-08-04 17:19:00,
2013-08-04 12:24:00,73.9,47.5,29.23,NNW,341,2.7,4.0,39,0.00,,---,0.00,VWS V14.01,2013-08-04 17:24:00,
2013-08-04 12:29:00,74.3,47.8,29.23,NNW,346,2.7,3.6,39,0.00,,---,0.00,VWS V14.01,2013-08-04 17:29:00,
2013-08-04 12:34:00,74.8,48.2,29.23,ESE,109,4.5,4.9,39,0.00,,---,0.00,VWS V14.01,2013-08-04 17:34:00,
2013-08-04 12:39:00,74.8,48.2,29.23,East,86,4.0,4.0,39,0.00,,---,0.00,VWS V14.01,2013-08-04 17:39:00,
2013-08-04 12:44:00,74.5,47.9,29.23,ENE,61,4.0,4.0,39,0.00,,---,0.00,VWS V14.01,2013-08-04 17:44:00,
2013-08-04 12:49:00,73.4,42.6,29.23,SW,220,0.0,0.0,33,0.00,,---,0.00,VWS V14.01,2013-08-04 17:49:00,
2013-08-04 12:54:00,72.3,48.0,29.23,WSW,254,2.7,3.1,42,0.00,,---,0.00,VWS V14.01,2013-08-04 17:54:00,
2013-08-04 12:59:00,71.8,41.2,29.23,West,262,0.0,0.0,33,0.00,,---,0.00,VWS V14.01,2013-08-04 17:59:00,
2013-08-04 13:04:00,71.8,47.5,29.23,WNW,291,0.0,0.0,42,0.00,,---,0.00,VWS V14.01,2013-08-04 18:04:00,
2013-08-04 13:09:00,72.7,48.3,29.23,West,268,4.9,4.9,42,0.00,,---,0.00,VWS V14.01,2013-08-04 18:09:00,
2013-08-04 13:14:00,72.5,48.1,29.23,NW,317,5.4,5.4,42,0.00,,---,0.00,VWS V14.01,2013-08-04 18:14:00,
2013-08-04 13:19:00,72.1,41.5,29.23,North,0,3.1,4.9,33,0.00,,---,0.00,VWS V14.01,2013-08-04 18:19:00,
2013-08-04 13:24:00,72.1,41.5,29.23,West,271,0.0,0.0,33,0.00,,---,0.00,VWS V14.01,2013-08-04 18:24:00,
2013-08-04 13:29:00,72.0,41.3,29.23,East,91,4.0,4.0,33,0.00,,---,0.00,VWS V14.01,2013-08-04 18:29:00,
2013-08-04 13:34:00,72.3,41.6,29.21,ENE,77,4.0,4.9,33,0.00,,---,0.00,VWS V14.01,2013-08-04 18:34:00,
2013-08-04 13:39:00,72.1,41.5,29.21,NE,49,4.9,4.9,33,0.00,,---,0.00,VWS V14.01,2013-08-04 18:39:00,
2013-08-04 13:44:00,72.3,41.6,29.21,NNE,21,2.7,4.0,33,0.00,,---,0.00,VWS V14.01,2013-08-04 18:44:00,
2013-08-04 13:49:00,72.3,41.6,29.21,ESE,105,0.0,2.2,33,0.00,,---,0.00,VWS V14.01,2013-08-04 18:49:00,
2013-08-04 13:54:00,72.1,41.5,29.21,NNW,330,3.6,4.0,33,0.00,,---,0.00,VWS V14.01,2013-08-04 18:54:00,
2013-08-04 13:59:00,72.1,41.5,29.21,ENE,73,3.1,3.6,33,0.00,,---,0.00,VWS V14.01,2013-08-04 18:59:00,
2013-08-04 14:04:00,71.6,41.0,29.21,ENE,57,4.9,4.9,33,0.00,,---,0.00,VWS V14.01,2013-08-04 19:04:00,
2013-08-04 14:09:00,71.2,42.9,29.21,NNE,23,2.7,3.6,36,0.00,,---,0.00,VWS V14.01,2013-08-04 19:09:00,
2013-08-04 14:14:00,71.1,42.8,29.21,North,10,0.0,0.0,36,0.00,,---,0.00,VWS V14.01,2013-08-04 19:14:00,
2013-08-04 14:19:00,70.9,42.6,29.21,North,0,2.7,3.1,36,0.00,,---,0.00,VWS V14.01,2013-08-04 19:19:00,
2013-08-04 14:23:00,70.5,42.3,29.21,ENE,62,0.0,0.0,36,0.00,,---,0.00,VWS V14.01,2013-08-04 19:23:00,
2013-08-04 14:29:00,70.5,46.3,29.21,NE,38,2.7,4.0,42,0.00,,---,0.00,VWS V14.01,2013-08-04 19:29:00,
2013-08-04 14:33:00,70.5,42.3,29.21,NE,41,3.6,4.0,36,0.00,,---,0.00,VWS V14.01,2013-08-04 19:33:00,
2013-08-04 14:39:00,71.1,42.8,29.21,NE,47,2.2,3.1,36,0.00,,---,0.00,VWS V14.01,2013-08-04 19:39:00,
2013-08-04 14:44:00,71.2,42.9,29.21,East,98,2.7,2.7,36,0.00,,---,0.00,VWS V14.01,2013-08-04 19:44:00,
2013-08-04 14:49:00,71.8,47.5,29.21,NE,48,5.4,5.4,42,0.00,,---,0.00,VWS V14.01,2013-08-04 19:49:00,
2013-08-04 14:54:00,72.1,41.5,29.21,NE,55,3.6,3.6,33,0.00,,---,0.00,VWS V14.01,2013-08-04 19:54:00,
2013-08-04 14:59:00,72.5,41.8,29.21,WNW,289,3.6,4.0,33,0.00,,---,0.00,VWS V14.01,2013-08-04 19:59:00,
2013-08-04 15:04:00,72.5,41.8,29.21,East,84,3.1,3.6,33,0.00,,---,0.00,VWS V14.01,2013-08-04 20:04:00,
2013-08-04 15:09:00,73.0,48.6,29.21,NNE,22,0.0,0.0,42,0.00,,---,0.00,VWS V14.01,2013-08-04 20:09:00,
2013-08-04 15:14:00,73.6,42.7,29.21,North,353,0.0,0.0,33,0.00,,---,0.00,VWS V14.01,2013-08-04 20:14:00,
2013-08-04 15:19:00,73.2,42.4,29.21,NNE,29,5.4,5.4,33,0.00,,---,0.00,VWS V14.01,2013-08-04 20:19:00,
2013-08-04 15:24:00,73.0,42.3,29.21,East,85,8.3,8.3,33,0.00,,---,0.00,VWS V14.01,2013-08-04 20:24:00,
2013-08-04 15:29:00,72.7,42.0,29.21,NE,46,2.7,2.7,33,0.00,,---,0.00,VWS V14.01,2013-08-04 20:29:00,
2013-08-04 15:34:00,72.3,41.6,29.21,NE,37,2.7,2.7,33,0.00,,---,0.00,VWS V14.01,2013-08-04 20:34:00,
2013-08-04 15:38:00,72.1,41.5,29.21,NE,48,2.7,4.0,33,0.00,,---,0.00,VWS V14.01,2013-08-04 20:38:00,
2013-08-04 15:39:00,72.0,41.3,29.21,NE,48,2.7,4.0,33,0.00,,---,0.00,VWS V14.01,2013-08-04 20:39:00,
2013-08-04 15:44:00,71.8,41.2,29.21,NE,39,3.6,3.6,33,0.00,,---,0.00,VWS V14.01,2013-08-04 20:44:00,
2013-08-04 15:49:00,71.8,41.2,29.21,ENE,57,4.0,4.0,33,0.00,,---,0.00,VWS V14.01,2013-08-04 20:49:00,
2013-08-04 15:54:00,72.0,41.3,29.21,NNW,348,4.0,4.0,33,0.00,,---,0.00,VWS V14.01,2013-08-04 20:54:00,
2013-08-04 15:59:00,72.0,41.3,29.21,NE,51,2.7,3.1,33,0.00,,---,0.00,VWS V14.01,2013-08-04 20:59:00,
2013-08-04 16:04:00,72.1,41.5,29.21,North,357,3.6,3.6,33,0.00,,---,0.00,VWS V14.01,2013-08-04 21:04:00,
2013-08-04 16:08:00,72.1,41.5,29.21,NNE,17,5.8,5.8,33,0.00,,---,0.00,VWS V14.01,2013-08-04 21:08:00,
2013-08-04 16:14:00,72.1,41.5,29.21,North,357,2.7,3.6,33,0.00,,---,0.00,VWS V14.01,2013-08-04 21:14:00,
2013-08-04 16:18:00,72.1,41.5,29.18,NNE,30,3.1,3.1,33,0.00,,---,0.00,VWS V14.01,2013-08-04 21:18:00,
2013-08-04 16:24:00,72.0,41.3,29.18,East,81,2.7,4.0,33,0.00,,---,0.00,VWS V14.01,2013-08-04 21:24:00,
2013-08-04 16:29:00,71.6,41.0,29.18,East,85,3.1,3.1,33,0.00,,---,0.00,VWS V14.01,2013-08-04 21:29:00,
2013-08-04 16:34:00,71.6,41.0,29.18,East,101,6.3,6.3,33,0.00,,---,0.00,VWS V14.01,2013-08-04 21:34:00,
2013-08-04 16:39:00,71.6,41.0,29.18,ESE,103,0.0,3.1,33,0.00,,---,0.00,VWS V14.01,2013-08-04 21:39:00,
2013-08-04 16:44:00,71.1,42.8,29.18,ENE,74,3.1,3.1,36,0.00,,---,0.00,VWS V14.01,2013-08-04 21:44:00,
2013-08-04 16:49:00,70.2,42.0,29.18,SSW,200,0.0,0.0,36,0.00,,---,0.00,VWS V14.01,2013-08-04 21:49:00,
2013-08-04 16:54:00,69.6,47.4,29.18,SSW,200,0.0,0.0,45,0.00,,---,0.00,VWS V14.01,2013-08-04 21:54:00,
2013-08-04 16:59:00,68.9,46.7,29.18,SSW,200,0.0,0.0,45,0.00,,---,0.00,VWS V14.01,2013-08-04 21:59:00,
2013-08-04 17:04:00,68.7,46.5,29.18,SSW,200,0.0,0.0,45,0.00,,---,0.00,VWS V14.01,2013-08-04 22:04:00,
2013-08-04 17:09:00,68.9,46.7,29.18,WSW,238,0.0,0.0,45,0.00,,---,0.00,VWS V14.01,2013-08-04 22:09:00,
2013-08-04 17:14:00,69.1,46.9,29.18,SW,233,2.7,2.7,45,0.00,,---,0.00,VWS V14.01,2013-08-04 22:14:00,
2013-08-04 17:19:00,69.8,41.7,29.18,NNW,336,4.0,4.0,36,0.00,,---,0.00,VWS V14.01,2013-08-04 22:19:00,
2013-08-04 17:24:00,70.3,46.2,29.18,NE,38,7.6,7.6,42,0.00,,---,0.00,VWS V14.01,2013-08-04 22:24:00,
2013-08-04 17:29:00,70.9,46.7,29.18,ENE,66,5.8,6.3,42,0.00,,---,0.00,VWS V14.01,2013-08-04 22:29:00,
2013-08-04 17:34:00,71.1,46.8,29.18,ENE,59,3.1,4.9,42,0.00,,---,0.00,VWS V14.01,2013-08-04 22:34:00,
2013-08-04 17:39:00,71.2,47.0,29.18,NE,38,4.9,4.9,42,0.00,,---,0.00,VWS V14.01,2013-08-04 22:39:00,
2013-08-04 17:44:00,71.2,47.0,29.18,NE,39,4.0,5.8,42,0.00,,---,0.00,VWS V14.01,2013-08-04 22:44:00,
2013-08-04 17:49:00,70.9,42.6,29.18,NNE,19,4.9,5.4,36,0.00,,---,0.00,VWS V14.01,2013-08-04 22:49:00,
2013-08-04 17:54:00,70.5,42.3,29.18,ENE,57,3.6,4.0,36,0.00,,---,0.00,VWS V14.01,2013-08-04 22:54:00,
2013-08-04 17:59:00,70.2,46.0,29.18,NE,44,3.6,3.6,42,0.00,,---,0.00,VWS V14.01,2013-08-04 22:59:00,
2013-08-04 18:04:00,70.0,45.9,29.18,ENE,76,2.7,2.7,42,0.00,,---,0.00,VWS V14.01,2013-08-04 23:04:00,
2013-08-04 18:09:00,69.8,45.7,29.18,ENE,70,0.0,0.0,42,0.00,,---,0.00,VWS V14.01,2013-08-04 23:09:00,
2013-08-04 18:14:00,69.6,47.4,29.18,ENE,58,3.1,3.1,45,0.00,,---,0.00,VWS V14.01,2013-08-04 23:14:00,
2013-08-04 18:19:00,69.6,47.4,29.15,NE,55,2.7,3.1,45,0.00,,---,0.00,VWS V14.01,2013-08-04 23:19:00,
2013-08-04 18:24:00,70.0,45.9,29.15,ENE,62,2.2,2.2,42,0.00,,---,0.00,VWS V14.01,2013-08-04 23:24:00,
2013-08-04 18:29:00,70.3,46.2,29.15,ENE,75,4.0,4.0,42,0.00,,---,0.00,VWS V14.01,2013-08-04 23:29:00,
2013-08-04 18:34:00,70.3,46.2,29.15,ENE,64,4.0,4.0,42,0.00,,---,0.00,VWS V14.01,2013-08-04 23:34:00,
2013-08-04 18:39:00,70.5,46.3,29.15,ENE,60,4.0,4.0,42,0.00,,---,0.00,VWS V14.01,2013-08-04 23:39:00,
2013-08-04 18:44:00,70.5,46.3,29.15,NE,53,0.0,2.7,42,0.00,,---,0.00,VWS V14.01,2013-08-04 23:44:00,
2013-08-04 18:49:00,70.0,45.9,29.15,ENE,72,0.0,0.0,42,0.00,,---,0.00,VWS V14.01,2013-08-04 23:49:00,
2013-08-04 18:54:00,69.3,47.0,29.15,ENE,72,0.0,0.0,45,0.00,,---,0.00,VWS V14.01,2013-08-04 23:54:00,
2013-08-04 18:59:00,68.9,50.0,29.15,ENE,72,0.0,0.0,51,0.00,,---,0.00,VWS V14.01,2013-08-04 23:59:00,
2013-08-04 19:04:00,68.2,49.4,29.15,ENE,73,0.0,0.0,51,0.00,,---,0.00,VWS V14.01,2013-08-05 00:04:00,
2013-08-04 19:09:00,67.5,48.7,29.15,ENE,73,0.0,0.0,51,0.00,,---,0.00,VWS V14.01,2013-08-05 00:09:00,
2013-08-04 19:14:00,67.1,48.4,29.15,ENE,73,0.0,0.0,51,0.00,,---,0.00,VWS V14.01,2013-08-05 00:14:00,
2013-08-04 19:19:00,66.7,48.1,29.15,ENE,73,0.0,0.0,51,0.00,,---,0.00,VWS V14.01,2013-08-05 00:19:00,
2013-08-04 19:24:00,66.4,52.1,29.15,ENE,73,0.0,0.0,60,0.00,,---,0.00,VWS V14.01,2013-08-05 00:24:00,
2013-08-04 19:29:00,66.0,55.6,29.15,ENE,73,0.0,0.0,69,0.00,,---,0.00,VWS V14.01,2013-08-05 00:29:00,
2013-08-04 19:33:00,65.8,55.4,29.15,ENE,73,0.0,0.0,69,0.00,,---,0.00,VWS V14.01,2013-08-05 00:33:00,
2013-08-04 19:39:00,65.7,56.4,29.15,ENE,73,0.0,0.0,72,0.00,,---,0.00,VWS V14.01,2013-08-05 00:39:00,
2013-08-04 19:44:00,65.3,57.2,29.15,ENE,73,0.0,0.0,75,0.00,,---,0.00,VWS V14.01,2013-08-05 00:44:00,
2013-08-04 19:49:00,64.9,59.0,29.15,ENE,73,0.0,0.0,81,0.00,,---,0.00,VWS V14.01,2013-08-05 00:49:00,
2013-08-04 19:54:00,64.8,59.8,29.15,ENE,73,0.0,0.0,84,0.00,,---,0.00,VWS V14.01,2013-08-05 00:54:00,
2013-08-04 19:59:00,64.4,60.5,29.15,ENE,73,0.0,0.0,87,0.00,,---,0.00,VWS V14.01,2013-08-05 00:59:00,
2013-08-04 20:04:00,64.2,61.2,29.15,ENE,73,0.0,0.0,90,0.00,,---,0.00,VWS V14.01,2013-08-05 01:04:00,
2013-08-04 20:09:00,63.7,63.4,29.15,ENE,73,0.0,0.0,99,0.00,,---,0.00,VWS V14.01,2013-08-05 01:09:00,
2013-08-04 20:14:00,63.3,63.0,29.15,ENE,73,0.0,0.0,99,0.00,,---,0.00,VWS V14.01,2013-08-05 01:14:00,
2013-08-04 20:18:00,63.0,63.0,29.15,ENE,73,0.0,0.0,100,0.00,,---,0.00,VWS V14.01,2013-08-05 01:18:00,
2013-08-04 20:23:00,62.8,62.8,29.15,ENE,73,0.0,0.0,100,0.00,,---,0.00,VWS V14.01,2013-08-05 01:23:00,
2013-08-04 20:28:00,62.4,62.4,29.15,ENE,73,0.0,0.0,100,0.00,,---,0.00,VWS V14.01,2013-08-05 01:28:00,
2013-08-04 20:33:00,62.1,62.1,29.15,ENE,73,0.0,0.0,100,0.00,,---,0.00,VWS V14.01,2013-08-05 01:33:00,
2013-08-04 20:39:00,61.7,61.7,29.15,ENE,73,0.0,0.0,100,0.00,,---,0.00,VWS V14.01,2013-08-05 01:39:00,
2013-08-04 20:44:00,61.3,61.3,29.15,ENE,73,0.0,0.0,100,0.00,,---,0.00,VWS V14.01,2013-08-05 01:44:00,
2013-08-04 20:49:00,61.0,61.0,29.15,ENE,73,0.0,0.0,100,0.00,,---,0.00,VWS V14.01,2013-08-05 01:49:00,
2013-08-04 20:54:00,60.4,60.4,29.15,ENE,73,0.0,0.0,100,0.00,,---,0.00,VWS V14.01,2013-08-05 01:54:00,
2013-08-04 20:58:00,60.4,60.4,29.15,ENE,73,0.0,0.0,100,0.00,,---,0.00,VWS V14.01,2013-08-05 01:58:00,
2013-08-04 21:04:00,60.3,60.3,29.15,ENE,73,0.0,0.0,100,0.00,,---,0.00,VWS V14.01,2013-08-05 02:04:00,
2013-08-04 21:08:00,59.9,59.9,29.15,ENE,73,0.0,0.0,100,0.00,,---,0.00,VWS V14.01,2013-08-05 02:08:00,
2013-08-04 21:13:00,59.7,59.7,29.15,ENE,73,0.0,0.0,100,0.00,,---,0.00,VWS V14.01,2013-08-05 02:13:00,
2013-08-04 21:19:00,59.7,59.7,29.12,ENE,73,0.0,0.0,100,0.00,,---,0.00,VWS V14.01,2013-08-05 02:19:00,
2013-08-04 21:24:00,59.4,59.4,29.12,ENE,73,0.0,0.0,100,0.00,,---,0.00,VWS V14.01,2013-08-05 02:24:00,
2013-08-04 21:28:00,59.4,59.4,29.12,ENE,73,0.0,0.0,100,0.00,,---,0.00,VWS V14.01,2013-08-05 02:28:00,
2013-08-04 21:33:00,59.2,59.2,29.15,ENE,73,0.0,0.0,100,0.00,,---,0.00,VWS V14.01,2013-08-05 02:33:00,
2013-08-04 21:39:00,59.0,59.0,29.15,ENE,73,0.0,0.0,100,0.00,,---,0.00,VWS V14.01,2013-08-05 02:39:00,
2013-08-04 21:44:00,58.8,58.8,29.15,ENE,73,0.0,0.0,100,0.00,,---,0.00,VWS V14.01,2013-08-05 02:44:00,
2013-08-04 21:49:00,58.5,58.5,29.15,ENE,73,0.0,0.0,100,0.00,,---,0.00,VWS V14.01,2013-08-05 02:49:00,
2013-08-04 21:54:00,58.1,58.1,29.15,ENE,73,0.0,0.0,100,0.00,,---,0.00,VWS V14.01,2013-08-05 02:54:00,
2013-08-04 21:59:00,57.7,57.7,29.15,ENE,73,0.0,0.0,100,0.00,,---,0.00,VWS V14.01,2013-08-05 02:59:00,
2013-08-04 22:04:00,57.6,57.6,29.15,ENE,73,0.0,0.0,100,0.00,,---,0.00,VWS V14.01,2013-08-05 03:04:00,
2013-08-04 22:09:00,57.6,57.6,29.15,ENE,73,0.0,0.0,100,0.00,,---,0.00,VWS V14.01,2013-08-05 03:09:00,
2013-08-04 22:14:00,57.4,57.4,29.15,ENE,73,0.0,0.0,100,0.00,,---,0.00,VWS V14.01,2013-08-05 03:14:00,
2013-08-04 22:19:00,57.2,57.2,29.15,ENE,73,0.0,0.0,100,0.00,,---,0.00,VWS V14.01,2013-08-05 03:19:00,
2013-08-04 22:24:00,57.2,57.2,29.15,ENE,73,0.0,0.0,100,0.00,,---,0.00,VWS V14.01,2013-08-05 03:24:00,
2013-08-04 22:29:00,57.0,57.0,29.15,ENE,73,0.0,0.0,100,0.00,,---,0.00,VWS V14.01,2013-08-05 03:29:00,
2013-08-04 22:34:00,57.0,57.0,29.15,ENE,73,0.0,0.0,100,0.00,,---,0.00,VWS V14.01,2013-08-05 03:34:00,
2013-08-04 22:39:00,56.8,56.8,29.15,ENE,73,0.0,0.0,100,0.00,,---,0.00,VWS V14.01,2013-08-05 03:39:00,
2013-08-04 22:44:00,56.7,56.7,29.15,ENE,73,0.0,0.0,100,0.00,,---,0.00,VWS V14.01,2013-08-05 03:44:00,
2013-08-04 22:48:00,56.7,56.7,29.15,ENE,73,0.0,0.0,100,0.00,,---,0.00,VWS V14.01,2013-08-05 03:48:00,
2013-08-04 22:53:00,56.5,56.5,29.15,ENE,72,5.8,5.8,100,0.00,,---,0.00,VWS V14.01,2013-08-05 03:53:00,
2013-08-04 22:58:00,56.1,56.1,29.15,ESE,118,0.0,0.0,100,0.00,,---,0.00,VWS V14.01,2013-08-05 03:58:00,
2013-08-04 23:01:00,56.1,56.1,29.15,ESE,118,0.0,0.0,100,0.00,,---,0.00,VWS V14.01,2013-08-05 04:01:00,
2013-08-04 23:06:00,55.9,55.9,29.15,ESE,117,0.0,0.0,100,0.00,,---,0.00,VWS V14.01,2013-08-05 04:06:00,
2013-08-04 23:12:00,55.6,55.6,29.15,ESE,117,0.0,0.0,100,0.00,,---,0.00,VWS V14.01,2013-08-05 04:12:00,
2013-08-04 23:17:00,55.4,55.4,29.15,ESE,117,0.0,0.0,100,0.00,,---,0.00,VWS V14.01,2013-08-05 04:17:00,
2013-08-04 23:22:00,55.2,55.2,29.15,ESE,117,0.0,0.0,100,0.00,,---,0.00,VWS V14.01,2013-08-05 04:22:00,
2013-08-04 23:27:00,55.2,55.2,29.15,ESE,117,0.0,0.0,100,0.00,,---,0.00,VWS V14.01,2013-08-05 04:27:00,
2013-08-04 23:31:00,55.0,55.0,29.15,ESE,117,0.0,0.0,100,0.00,,---,0.00,VWS V14.01,2013-08-05 04:31:00,
2013-08-04 23:37:00,55.0,55.0,29.15,ESE,117,0.0,0.0,100,0.00,,---,0.00,VWS V14.01,2013-08-05 04:37:00,
2013-08-04 23:42:00,54.9,54.9,29.15,ESE,117,0.0,0.0,100,0.00,,---,0.00,VWS V14.01,2013-08-05 04:42:00,
2013-08-04 23:47:00,54.7,54.7,29.15,ESE,117,0.0,0.0,100,0.00,,---,0.00,VWS V14.01,2013-08-05 04:47:00,
2013-08-04 23:52:00,54.5,54.5,29.15,ESE,117,0.0,0.0,100,0.00,,---,0.00,VWS V14.01,2013-08-05 04:52:00,
2013-08-04 23:57:00,54.5,54.5,29.15,ESE,117,0.0,0.0,100,0.00,,---,0.00,VWS V14.01,2013-08-05 04:57:00,